sensor_id;sensor_type;location;lat;lon;timestamp;P1;durP1;ratioP1;P2;durP2;ratioP2
17915;SDS011;9083;49.156;8.982;2023-08-17T00:00:29;3.37;;;2.40;;
17915;SDS011;9083;49.156;8.982;2023-08-17T00:02:57;2.43;;;2.33;;
17915;SDS011;9083;49.156;8.982;2023-08-17T00:05:24;2.97;;;2.40;;
17915;SDS011;9083;49.156;8.982;2023-08-17T00:07:51;4.33;;;2.80;;
17915;SDS011;9083;49.156;8.982;2023-08-17T00:10:18;6.60;;;2.87;;
17915;SDS011;9083;49.156;8.982;2023-08-17T00:12:44;4.13;;;2.83;;
17915;SDS011;9083;49.156;8.982;2023-08-17T00:15:10;2.80;;;2.60;;
17915;SDS011;9083;49.156;8.982;2023-08-17T00:17:37;3.90;;;2.40;;
17915;SDS011;9083;49.156;8.982;2023-08-17T00:20:05;3.50;;;2.80;;
17915;SDS011;9083;49.156;8.982;2023-08-17T00:22:34;3.53;;;2.77;;
17915;SDS011;9083;49.156;8.982;2023-08-17T00:25:01;2.77;;;2.50;;
17915;SDS011;9083;49.156;8.982;2023-08-17T00:27:28;3.53;;;2.70;;
17915;SDS011;9083;49.156;8.982;2023-08-17T00:29:54;3.57;;;2.60;;
17915;SDS011;9083;49.156;8.982;2023-08-17T00:32:21;6.23;;;2.77;;
17915;SDS011;9083;49.156;8.982;2023-08-17T00:34:47;2.53;;;2.20;;
17915;SDS011;9083;49.156;8.982;2023-08-17T00:37:15;2.67;;;2.47;;
17915;SDS011;9083;49.156;8.982;2023-08-17T00:39:41;3.80;;;2.47;;
17915;SDS011;9083;49.156;8.982;2023-08-17T00:42:08;2.43;;;2.23;;
17915;SDS011;9083;49.156;8.982;2023-08-17T00:44:35;3.27;;;3.03;;
17915;SDS011;9083;49.156;8.982;2023-08-17T00:47:01;3.77;;;2.70;;
17915;SDS011;9083;49.156;8.982;2023-08-17T00:49:28;2.60;;;2.40;;
17915;SDS011;9083;49.156;8.982;2023-08-17T00:51:54;2.93;;;2.47;;
17915;SDS011;9083;49.156;8.982;2023-08-17T00:54:23;2.60;;;2.33;;
17915;SDS011;9083;49.156;8.982;2023-08-17T00:56:50;2.80;;;2.60;;
17915;SDS011;9083;49.156;8.982;2023-08-17T00:59:16;2.97;;;2.67;;
17915;SDS011;9083;49.156;8.982;2023-08-17T01:01:43;7.00;;;2.73;;
17915;SDS011;9083;49.156;8.982;2023-08-17T01:04:10;4.00;;;2.50;;
17915;SDS011;9083;49.156;8.982;2023-08-17T01:06:36;2.90;;;2.60;;
17915;SDS011;9083;49.156;8.982;2023-08-17T01:09:03;5.37;;;3.03;;
17915;SDS011;9083;49.156;8.982;2023-08-17T01:11:32;3.97;;;3.03;;
17915;SDS011;9083;49.156;8.982;2023-08-17T01:14:01;4.93;;;3.20;;
17915;SDS011;9083;49.156;8.982;2023-08-17T01:16:31;4.37;;;2.70;;
17915;SDS011;9083;49.156;8.982;2023-08-17T01:18:57;2.93;;;2.67;;
17915;SDS011;9083;49.156;8.982;2023-08-17T01:21:24;4.97;;;3.03;;
17915;SDS011;9083;49.156;8.982;2023-08-17T01:23:58;4.10;;;2.37;;
17915;SDS011;9083;49.156;8.982;2023-08-17T01:26:25;7.33;;;3.40;;
17915;SDS011;9083;49.156;8.982;2023-08-17T01:28:51;6.30;;;2.57;;
17915;SDS011;9083;49.156;8.982;2023-08-17T01:31:19;3.63;;;3.20;;
17915;SDS011;9083;49.156;8.982;2023-08-17T01:33:48;3.17;;;2.83;;
17915;SDS011;9083;49.156;8.982;2023-08-17T01:36:18;2.73;;;2.53;;
17915;SDS011;9083;49.156;8.982;2023-08-17T01:38:45;2.97;;;2.73;;
17915;SDS011;9083;49.156;8.982;2023-08-17T01:41:13;3.17;;;2.87;;
17915;SDS011;9083;49.156;8.982;2023-08-17T01:43:41;3.07;;;2.70;;
17915;SDS011;9083;49.156;8.982;2023-08-17T01:46:12;3.70;;;2.90;;
17915;SDS011;9083;49.156;8.982;2023-08-17T01:48:38;2.77;;;2.37;;
17915;SDS011;9083;49.156;8.982;2023-08-17T01:51:05;3.20;;;2.70;;
17915;SDS011;9083;49.156;8.982;2023-08-17T01:53:31;2.70;;;2.50;;
17915;SDS011;9083;49.156;8.982;2023-08-17T01:55:58;4.60;;;2.67;;
17915;SDS011;9083;49.156;8.982;2023-08-17T01:58:25;4.63;;;2.70;;
17915;SDS011;9083;49.156;8.982;2023-08-17T02:00:52;3.33;;;2.57;;
17915;SDS011;9083;49.156;8.982;2023-08-17T02:03:18;3.10;;;2.60;;
17915;SDS011;9083;49.156;8.982;2023-08-17T02:05:45;5.57;;;2.47;;
17915;SDS011;9083;49.156;8.982;2023-08-17T02:08:11;3.40;;;3.10;;
17915;SDS011;9083;49.156;8.982;2023-08-17T02:10:37;7.70;;;3.23;;
17915;SDS011;9083;49.156;8.982;2023-08-17T02:13:04;2.80;;;2.60;;
17915;SDS011;9083;49.156;8.982;2023-08-17T02:15:32;3.73;;;2.80;;
17915;SDS011;9083;49.156;8.982;2023-08-17T02:17:59;6.13;;;2.83;;
17915;SDS011;9083;49.156;8.982;2023-08-17T02:20:26;4.33;;;2.80;;
17915;SDS011;9083;49.156;8.982;2023-08-17T02:22:52;3.60;;;3.20;;
17915;SDS011;9083;49.156;8.982;2023-08-17T02:25:19;4.60;;;2.83;;
17915;SDS011;9083;49.156;8.982;2023-08-17T02:27:45;6.33;;;2.87;;
17915;SDS011;9083;49.156;8.982;2023-08-17T02:30:12;8.17;;;3.17;;
17915;SDS011;9083;49.156;8.982;2023-08-17T02:32:40;6.37;;;3.37;;
17915;SDS011;9083;49.156;8.982;2023-08-17T02:35:07;5.63;;;3.47;;
17915;SDS011;9083;49.156;8.982;2023-08-17T02:37:33;6.30;;;3.30;;
17915;SDS011;9083;49.156;8.982;2023-08-17T02:40:00;5.70;;;3.20;;
17915;SDS011;9083;49.156;8.982;2023-08-17T02:42:26;5.40;;;2.97;;
17915;SDS011;9083;49.156;8.982;2023-08-17T02:44:53;5.83;;;3.27;;
17915;SDS011;9083;49.156;8.982;2023-08-17T02:47:19;4.47;;;3.03;;
17915;SDS011;9083;49.156;8.982;2023-08-17T02:49:47;5.40;;;3.40;;
17915;SDS011;9083;49.156;8.982;2023-08-17T02:52:14;4.60;;;3.40;;
17915;SDS011;9083;49.156;8.982;2023-08-17T02:54:40;4.37;;;3.27;;
17915;SDS011;9083;49.156;8.982;2023-08-17T02:57:07;8.43;;;3.17;;
17915;SDS011;9083;49.156;8.982;2023-08-17T02:59:34;4.33;;;3.03;;
17915;SDS011;9083;49.156;8.982;2023-08-17T03:02:00;4.30;;;2.80;;
17915;SDS011;9083;49.156;8.982;2023-08-17T03:04:27;3.03;;;2.83;;
17915;SDS011;9083;49.156;8.982;2023-08-17T03:06:54;3.27;;;2.90;;
17915;SDS011;9083;49.156;8.982;2023-08-17T03:09:21;4.23;;;2.80;;
17915;SDS011;9083;49.156;8.982;2023-08-17T03:11:47;4.57;;;3.30;;
17915;SDS011;9083;49.156;8.982;2023-08-17T03:14:14;3.27;;;2.80;;
17915;SDS011;9083;49.156;8.982;2023-08-17T03:16:40;4.50;;;3.10;;
17915;SDS011;9083;49.156;8.982;2023-08-17T03:19:06;4.33;;;3.30;;
17915;SDS011;9083;49.156;8.982;2023-08-17T03:21:36;8.57;;;3.03;;
17915;SDS011;9083;49.156;8.982;2023-08-17T03:24:04;3.43;;;2.73;;
17915;SDS011;9083;49.156;8.982;2023-08-17T03:26:31;5.90;;;2.83;;
17915;SDS011;9083;49.156;8.982;2023-08-17T03:28:57;4.27;;;2.90;;
17915;SDS011;9083;49.156;8.982;2023-08-17T03:31:23;3.87;;;2.87;;
17915;SDS011;9083;49.156;8.982;2023-08-17T03:33:50;5.70;;;3.47;;
17915;SDS011;9083;49.156;8.982;2023-08-17T03:36:16;7.30;;;3.20;;
17915;SDS011;9083;49.156;8.982;2023-08-17T03:38:43;3.00;;;2.80;;
17915;SDS011;9083;49.156;8.982;2023-08-17T03:41:10;4.87;;;3.30;;
17915;SDS011;9083;49.156;8.982;2023-08-17T03:43:37;3.63;;;3.20;;
17915;SDS011;9083;49.156;8.982;2023-08-17T03:46:04;6.23;;;3.37;;
17915;SDS011;9083;49.156;8.982;2023-08-17T03:48:30;9.17;;;4.80;;
17915;SDS011;9083;49.156;8.982;2023-08-17T03:50:56;4.43;;;3.97;;
17915;SDS011;9083;49.156;8.982;2023-08-17T03:53:23;9.83;;;5.47;;
17915;SDS011;9083;49.156;8.982;2023-08-17T03:55:49;6.60;;;4.93;;
17915;SDS011;9083;49.156;8.982;2023-08-17T03:58:17;7.07;;;5.10;;
17915;SDS011;9083;49.156;8.982;2023-08-17T04:00:48;5.60;;;4.40;;
17915;SDS011;9083;49.156;8.982;2023-08-17T04:03:14;8.50;;;6.17;;
17915;SDS011;9083;49.156;8.982;2023-08-17T04:05:41;7.83;;;5.03;;
17915;SDS011;9083;49.156;8.982;2023-08-17T04:08:07;6.60;;;5.07;;
17915;SDS011;9083;49.156;8.982;2023-08-17T04:10:34;8.90;;;5.07;;
17915;SDS011;9083;49.156;8.982;2023-08-17T04:13:00;5.67;;;4.53;;
17915;SDS011;9083;49.156;8.982;2023-08-17T04:15:28;6.30;;;4.53;;
17915;SDS011;9083;49.156;8.982;2023-08-17T04:17:54;4.60;;;4.03;;
17915;SDS011;9083;49.156;8.982;2023-08-17T04:20:21;6.67;;;4.17;;
17915;SDS011;9083;49.156;8.982;2023-08-17T04:22:47;8.17;;;5.20;;
17915;SDS011;9083;49.156;8.982;2023-08-17T04:25:15;6.90;;;3.90;;
17915;SDS011;9083;49.156;8.982;2023-08-17T04:27:41;7.27;;;4.40;;
17915;SDS011;9083;49.156;8.982;2023-08-17T04:30:08;6.47;;;4.77;;
17915;SDS011;9083;49.156;8.982;2023-08-17T04:32:36;5.73;;;4.50;;
17915;SDS011;9083;49.156;8.982;2023-08-17T04:35:03;6.10;;;3.97;;
17915;SDS011;9083;49.156;8.982;2023-08-17T04:37:29;5.20;;;4.70;;
17915;SDS011;9083;49.156;8.982;2023-08-17T04:39:56;4.67;;;4.27;;
17915;SDS011;9083;49.156;8.982;2023-08-17T04:42:22;5.43;;;3.93;;
17915;SDS011;9083;49.156;8.982;2023-08-17T04:44:49;10.50;;;5.77;;
17915;SDS011;9083;49.156;8.982;2023-08-17T04:47:16;9.40;;;5.00;;
17915;SDS011;9083;49.156;8.982;2023-08-17T04:49:44;5.40;;;4.47;;
17915;SDS011;9083;49.156;8.982;2023-08-17T04:52:10;10.17;;;5.10;;
17915;SDS011;9083;49.156;8.982;2023-08-17T04:54:36;6.80;;;4.43;;
17915;SDS011;9083;49.156;8.982;2023-08-17T04:57:03;8.50;;;4.63;;
17915;SDS011;9083;49.156;8.982;2023-08-17T04:59:30;8.47;;;5.63;;
17915;SDS011;9083;49.156;8.982;2023-08-17T05:01:57;12.40;;;6.37;;
17915;SDS011;9083;49.156;8.982;2023-08-17T05:04:23;7.50;;;5.13;;
17915;SDS011;9083;49.156;8.982;2023-08-17T05:06:51;9.77;;;5.20;;
17915;SDS011;9083;49.156;8.982;2023-08-17T05:09:17;7.80;;;5.03;;
17915;SDS011;9083;49.156;8.982;2023-08-17T05:11:44;6.57;;;4.40;;
17915;SDS011;9083;49.156;8.982;2023-08-17T05:14:10;6.57;;;4.37;;
17915;SDS011;9083;49.156;8.982;2023-08-17T05:16:37;5.10;;;4.03;;
17915;SDS011;9083;49.156;8.982;2023-08-17T05:19:03;4.17;;;3.77;;
17915;SDS011;9083;49.156;8.982;2023-08-17T05:21:30;5.00;;;3.80;;
17915;SDS011;9083;49.156;8.982;2023-08-17T05:23:57;3.80;;;3.50;;
17915;SDS011;9083;49.156;8.982;2023-08-17T05:26:24;3.80;;;3.50;;
17915;SDS011;9083;49.156;8.982;2023-08-17T05:28:50;3.63;;;3.20;;
17915;SDS011;9083;49.156;8.982;2023-08-17T05:31:17;3.67;;;3.33;;
17915;SDS011;9083;49.156;8.982;2023-08-17T05:33:43;3.80;;;3.40;;
17915;SDS011;9083;49.156;8.982;2023-08-17T05:36:09;5.53;;;3.30;;
17915;SDS011;9083;49.156;8.982;2023-08-17T05:38:36;3.20;;;2.93;;
17915;SDS011;9083;49.156;8.982;2023-08-17T05:41:04;4.10;;;2.63;;
17915;SDS011;9083;49.156;8.982;2023-08-17T05:43:30;7.43;;;3.23;;
17915;SDS011;9083;49.156;8.982;2023-08-17T05:45:56;3.97;;;2.80;;
17915;SDS011;9083;49.156;8.982;2023-08-17T05:48:23;2.97;;;2.77;;
17915;SDS011;9083;49.156;8.982;2023-08-17T05:50:49;5.37;;;3.13;;
17915;SDS011;9083;49.156;8.982;2023-08-17T05:53:16;3.40;;;3.10;;
17915;SDS011;9083;49.156;8.982;2023-08-17T05:55:42;3.40;;;3.03;;
17915;SDS011;9083;49.156;8.982;2023-08-17T05:58:10;10.13;;;3.57;;
17915;SDS011;9083;49.156;8.982;2023-08-17T06:00:37;3.63;;;3.27;;
17915;SDS011;9083;49.156;8.982;2023-08-17T06:03:04;4.03;;;2.87;;
17915;SDS011;9083;49.156;8.982;2023-08-17T06:05:31;4.60;;;2.93;;
17915;SDS011;9083;49.156;8.982;2023-08-17T06:07:57;4.00;;;2.90;;
17915;SDS011;9083;49.156;8.982;2023-08-17T06:10:24;4.93;;;3.17;;
17915;SDS011;9083;49.156;8.982;2023-08-17T06:12:51;4.83;;;3.03;;
17915;SDS011;9083;49.156;8.982;2023-08-17T06:15:19;3.87;;;2.83;;
17915;SDS011;9083;49.156;8.982;2023-08-17T06:17:45;6.10;;;2.90;;
17915;SDS011;9083;49.156;8.982;2023-08-17T06:20:12;6.17;;;3.33;;
17915;SDS011;9083;49.156;8.982;2023-08-17T06:22:39;4.40;;;3.00;;
17915;SDS011;9083;49.156;8.982;2023-08-17T06:25:06;4.13;;;3.70;;
17915;SDS011;9083;49.156;8.982;2023-08-17T06:27:33;5.63;;;3.50;;
17915;SDS011;9083;49.156;8.982;2023-08-17T06:30:00;3.20;;;2.87;;
17915;SDS011;9083;49.156;8.982;2023-08-17T06:32:29;5.43;;;3.23;;
17915;SDS011;9083;49.156;8.982;2023-08-17T06:34:55;6.33;;;4.03;;
17915;SDS011;9083;49.156;8.982;2023-08-17T06:37:22;5.20;;;3.10;;
17915;SDS011;9083;49.156;8.982;2023-08-17T06:39:48;5.53;;;3.50;;
17915;SDS011;9083;49.156;8.982;2023-08-17T06:42:15;5.43;;;3.30;;
17915;SDS011;9083;49.156;8.982;2023-08-17T06:44:41;4.07;;;3.50;;
17915;SDS011;9083;49.156;8.982;2023-08-17T06:47:08;10.60;;;3.43;;
17915;SDS011;9083;49.156;8.982;2023-08-17T06:49:35;4.30;;;3.00;;
17915;SDS011;9083;49.156;8.982;2023-08-17T06:52:02;6.63;;;4.10;;
17915;SDS011;9083;49.156;8.982;2023-08-17T06:54:28;9.20;;;5.07;;
17915;SDS011;9083;49.156;8.982;2023-08-17T06:56:57;6.53;;;4.13;;
17915;SDS011;9083;49.156;8.982;2023-08-17T06:59:23;8.30;;;3.57;;
17915;SDS011;9083;49.156;8.982;2023-08-17T07:01:50;8.33;;;4.60;;
17915;SDS011;9083;49.156;8.982;2023-08-17T07:04:16;5.87;;;4.27;;
17915;SDS011;9083;49.156;8.982;2023-08-17T07:06:44;8.87;;;5.50;;
17915;SDS011;9083;49.156;8.982;2023-08-17T07:09:10;9.40;;;5.03;;
17915;SDS011;9083;49.156;8.982;2023-08-17T07:11:37;6.67;;;4.37;;
17915;SDS011;9083;49.156;8.982;2023-08-17T07:14:04;9.00;;;5.43;;
17915;SDS011;9083;49.156;8.982;2023-08-17T07:16:31;10.97;;;5.77;;
17915;SDS011;9083;49.156;8.982;2023-08-17T07:18:57;7.33;;;4.97;;
17915;SDS011;9083;49.156;8.982;2023-08-17T07:21:24;9.97;;;5.57;;
17915;SDS011;9083;49.156;8.982;2023-08-17T07:23:53;11.00;;;6.13;;
17915;SDS011;9083;49.156;8.982;2023-08-17T07:26:20;12.60;;;5.83;;
17915;SDS011;9083;49.156;8.982;2023-08-17T07:28:47;6.67;;;4.83;;
17915;SDS011;9083;49.156;8.982;2023-08-17T07:31:14;13.63;;;8.10;;
17915;SDS011;9083;49.156;8.982;2023-08-17T07:33:41;11.13;;;6.67;;
17915;SDS011;9083;49.156;8.982;2023-08-17T07:36:07;9.93;;;6.53;;
17915;SDS011;9083;49.156;8.982;2023-08-17T07:38:34;7.57;;;6.17;;
17915;SDS011;9083;49.156;8.982;2023-08-17T07:41:01;13.67;;;7.13;;
17915;SDS011;9083;49.156;8.982;2023-08-17T07:43:28;15.23;;;7.57;;
17915;SDS011;9083;49.156;8.982;2023-08-17T07:45:54;10.97;;;6.53;;
17915;SDS011;9083;49.156;8.982;2023-08-17T07:48:21;7.80;;;6.60;;
17915;SDS011;9083;49.156;8.982;2023-08-17T07:50:48;10.20;;;7.00;;
17915;SDS011;9083;49.156;8.982;2023-08-17T07:53:15;8.50;;;6.90;;
17915;SDS011;9083;49.156;8.982;2023-08-17T07:55:41;9.47;;;6.10;;
17915;SDS011;9083;49.156;8.982;2023-08-17T07:58:09;9.67;;;5.87;;
17915;SDS011;9083;49.156;8.982;2023-08-17T08:00:38;24.03;;;7.50;;
17915;SDS011;9083;49.156;8.982;2023-08-17T08:03:05;6.37;;;5.10;;
17915;SDS011;9083;49.156;8.982;2023-08-17T08:05:32;12.90;;;7.93;;
17915;SDS011;9083;49.156;8.982;2023-08-17T08:07:58;13.90;;;5.80;;
17915;SDS011;9083;49.156;8.982;2023-08-17T08:10:25;9.83;;;6.93;;
17915;SDS011;9083;49.156;8.982;2023-08-17T08:12:51;14.03;;;6.73;;
17915;SDS011;9083;49.156;8.982;2023-08-17T08:15:19;12.87;;;7.07;;
17915;SDS011;9083;49.156;8.982;2023-08-17T08:17:45;7.63;;;6.33;;
17915;SDS011;9083;49.156;8.982;2023-08-17T08:20:12;9.03;;;6.00;;
17915;SDS011;9083;49.156;8.982;2023-08-17T08:22:38;9.97;;;5.97;;
17915;SDS011;9083;49.156;8.982;2023-08-17T08:25:05;11.50;;;6.27;;
17915;SDS011;9083;49.156;8.982;2023-08-17T08:27:31;12.20;;;6.67;;
17915;SDS011;9083;49.156;8.982;2023-08-17T08:29:57;7.87;;;6.37;;
17915;SDS011;9083;49.156;8.982;2023-08-17T08:32:25;7.27;;;6.47;;
17915;SDS011;9083;49.156;8.982;2023-08-17T08:34:52;7.33;;;4.60;;
17915;SDS011;9083;49.156;8.982;2023-08-17T08:37:18;9.70;;;6.30;;
17915;SDS011;9083;49.156;8.982;2023-08-17T08:39:47;8.40;;;6.57;;
17915;SDS011;9083;49.156;8.982;2023-08-17T08:42:14;8.37;;;6.97;;
17915;SDS011;9083;49.156;8.982;2023-08-17T08:44:40;9.53;;;6.63;;
17915;SDS011;9083;49.156;8.982;2023-08-17T08:47:07;7.47;;;6.33;;
17915;SDS011;9083;49.156;8.982;2023-08-17T08:49:35;11.73;;;7.03;;
17915;SDS011;9083;49.156;8.982;2023-08-17T08:52:04;7.18;;;6.18;;
17915;SDS011;9083;49.156;8.982;2023-08-17T08:54:33;8.52;;;6.28;;
17915;SDS011;9083;49.156;8.982;2023-08-17T08:57:01;9.80;;;6.13;;
17915;SDS011;9083;49.156;8.982;2023-08-17T08:59:29;7.50;;;6.65;;
17915;SDS011;9083;49.156;8.982;2023-08-17T09:01:57;10.43;;;6.32;;
17915;SDS011;9083;49.156;8.982;2023-08-17T09:04:24;7.40;;;5.93;;
17915;SDS011;9083;49.156;8.982;2023-08-17T09:06:52;7.88;;;6.30;;
17915;SDS011;9083;49.156;8.982;2023-08-17T09:09:19;7.97;;;6.15;;
17915;SDS011;9083;49.156;8.982;2023-08-17T09:11:46;12.20;;;6.68;;
17915;SDS011;9083;49.156;8.982;2023-08-17T09:14:12;10.77;;;6.78;;
17915;SDS011;9083;49.156;8.982;2023-08-17T09:16:38;8.85;;;5.60;;
17915;SDS011;9083;49.156;8.982;2023-08-17T09:19:05;9.93;;;7.35;;
17915;SDS011;9083;49.156;8.982;2023-08-17T09:21:32;8.80;;;5.90;;
17915;SDS011;9083;49.156;8.982;2023-08-17T09:24:00;15.20;;;7.22;;
17915;SDS011;9083;49.156;8.982;2023-08-17T09:26:30;9.80;;;5.97;;
17915;SDS011;9083;49.156;8.982;2023-08-17T09:28:56;8.32;;;6.10;;
17915;SDS011;9083;49.156;8.982;2023-08-17T09:31:24;9.80;;;6.07;;
17915;SDS011;9083;49.156;8.982;2023-08-17T09:33:50;5.95;;;5.35;;
17915;SDS011;9083;49.156;8.982;2023-08-17T09:36:20;8.43;;;6.25;;
17915;SDS011;9083;49.156;8.982;2023-08-17T09:38:47;9.38;;;5.90;;
17915;SDS011;9083;49.156;8.982;2023-08-17T09:41:15;6.22;;;5.40;;
17915;SDS011;9083;49.156;8.982;2023-08-17T09:43:42;6.78;;;4.53;;
17915;SDS011;9083;49.156;8.982;2023-08-17T09:46:08;5.90;;;4.82;;
17915;SDS011;9083;49.156;8.982;2023-08-17T09:48:35;5.97;;;5.38;;
17915;SDS011;9083;49.156;8.982;2023-08-17T09:51:02;6.07;;;5.47;;
17915;SDS011;9083;49.156;8.982;2023-08-17T09:53:34;9.75;;;6.05;;
17915;SDS011;9083;49.156;8.982;2023-08-17T09:56:01;6.53;;;5.78;;
17915;SDS011;9083;49.156;8.982;2023-08-17T09:58:29;5.47;;;4.90;;
17915;SDS011;9083;49.156;8.982;2023-08-17T10:00:55;5.10;;;4.40;;
17915;SDS011;9083;49.156;8.982;2023-08-17T10:03:22;5.90;;;4.50;;
17915;SDS011;9083;49.156;8.982;2023-08-17T10:05:52;7.95;;;5.38;;
17915;SDS011;9083;49.156;8.982;2023-08-17T10:08:21;6.78;;;4.80;;
17915;SDS011;9083;49.156;8.982;2023-08-17T10:10:47;4.88;;;3.95;;
17915;SDS011;9083;49.156;8.982;2023-08-17T10:13:16;7.00;;;6.00;;
17915;SDS011;9083;49.156;8.982;2023-08-17T10:15:47;5.07;;;4.55;;
17915;SDS011;9083;49.156;8.982;2023-08-17T10:18:20;6.25;;;4.93;;
17915;SDS011;9083;49.156;8.982;2023-08-17T10:20:49;4.95;;;4.55;;
17915;SDS011;9083;49.156;8.982;2023-08-17T10:23:19;7.75;;;5.22;;
17915;SDS011;9083;49.156;8.982;2023-08-17T10:25:48;18.15;;;6.55;;
17915;SDS011;9083;49.156;8.982;2023-08-17T10:28:15;14.40;;;5.55;;
17915;SDS011;9083;49.156;8.982;2023-08-17T10:30:42;8.98;;;5.07;;
17915;SDS011;9083;49.156;8.982;2023-08-17T10:33:10;7.70;;;4.68;;
17915;SDS011;9083;49.156;8.982;2023-08-17T10:35:37;6.32;;;4.93;;
17915;SDS011;9083;49.156;8.982;2023-08-17T10:38:04;5.75;;;5.07;;
17915;SDS011;9083;49.156;8.982;2023-08-17T10:40:34;8.38;;;5.82;;
17915;SDS011;9083;49.156;8.982;2023-08-17T10:43:01;5.63;;;4.95;;
17915;SDS011;9083;49.156;8.982;2023-08-17T10:45:28;9.88;;;5.07;;
17915;SDS011;9083;49.156;8.982;2023-08-17T10:50:44;6.18;;;5.18;;
17915;SDS011;9083;49.156;8.982;2023-08-17T10:53:24;6.70;;;5.63;;
17915;SDS011;9083;49.156;8.982;2023-08-17T10:55:50;9.05;;;4.90;;
17915;SDS011;9083;49.156;8.982;2023-08-17T10:58:22;6.78;;;3.53;;
17915;SDS011;9083;49.156;8.982;2023-08-17T11:00:49;7.38;;;5.25;;
17915;SDS011;9083;49.156;8.982;2023-08-17T11:03:20;8.02;;;5.40;;
17915;SDS011;9083;49.156;8.982;2023-08-17T11:05:49;7.80;;;4.88;;
17915;SDS011;9083;49.156;8.982;2023-08-17T11:08:21;5.65;;;5.03;;
17915;SDS011;9083;49.156;8.982;2023-08-17T11:10:48;5.03;;;4.22;;
17915;SDS011;9083;49.156;8.982;2023-08-17T11:13:23;7.28;;;5.40;;
17915;SDS011;9083;49.156;8.982;2023-08-17T11:15:50;13.27;;;4.93;;
17915;SDS011;9083;49.156;8.982;2023-08-17T11:18:16;11.05;;;4.82;;
17915;SDS011;9083;49.156;8.982;2023-08-17T11:20:42;6.25;;;4.80;;
17915;SDS011;9083;49.156;8.982;2023-08-17T11:23:10;8.90;;;4.50;;
17915;SDS011;9083;49.156;8.982;2023-08-17T11:25:37;9.27;;;4.82;;
17915;SDS011;9083;49.156;8.982;2023-08-17T11:28:05;11.20;;;4.75;;
17915;SDS011;9083;49.156;8.982;2023-08-17T11:30:32;11.98;;;4.88;;
17915;SDS011;9083;49.156;8.982;2023-08-17T11:33:04;5.18;;;4.55;;
17915;SDS011;9083;49.156;8.982;2023-08-17T11:35:30;6.45;;;3.95;;
17915;SDS011;9083;49.156;8.982;2023-08-17T11:37:57;6.80;;;3.95;;
17915;SDS011;9083;49.156;8.982;2023-08-17T11:40:26;4.50;;;4.00;;
17915;SDS011;9083;49.156;8.982;2023-08-17T11:42:52;5.60;;;4.13;;
17915;SDS011;9083;49.156;8.982;2023-08-17T11:45:19;7.95;;;4.80;;
17915;SDS011;9083;49.156;8.982;2023-08-17T11:47:46;7.78;;;4.78;;
17915;SDS011;9083;49.156;8.982;2023-08-17T11:50:13;5.93;;;3.97;;
17915;SDS011;9083;49.156;8.982;2023-08-17T11:52:39;4.63;;;4.07;;
17915;SDS011;9083;49.156;8.982;2023-08-17T11:55:06;7.28;;;3.67;;
17915;SDS011;9083;49.156;8.982;2023-08-17T11:57:36;9.52;;;4.95;;
17915;SDS011;9083;49.156;8.982;2023-08-17T12:00:03;3.85;;;3.53;;
17915;SDS011;9083;49.156;8.982;2023-08-17T12:02:31;7.50;;;4.07;;
17915;SDS011;9083;49.156;8.982;2023-08-17T12:05:02;5.10;;;3.80;;
17915;SDS011;9083;49.156;8.982;2023-08-17T12:07:31;7.28;;;4.00;;
17915;SDS011;9083;49.156;8.982;2023-08-17T12:09:58;4.47;;;4.10;;
17915;SDS011;9083;49.156;8.982;2023-08-17T12:12:24;10.35;;;4.25;;
17915;SDS011;9083;49.156;8.982;2023-08-17T12:14:54;6.50;;;4.60;;
17915;SDS011;9083;49.156;8.982;2023-08-17T12:17:21;4.90;;;3.83;;
17915;SDS011;9083;49.156;8.982;2023-08-17T12:19:48;18.63;;;4.85;;
17915;SDS011;9083;49.156;8.982;2023-08-17T12:22:16;7.70;;;4.85;;
17915;SDS011;9083;49.156;8.982;2023-08-17T12:24:42;6.78;;;4.07;;
17915;SDS011;9083;49.156;8.982;2023-08-17T12:27:09;11.45;;;4.78;;
17915;SDS011;9083;49.156;8.982;2023-08-17T12:29:45;16.33;;;4.80;;
17915;SDS011;9083;49.156;8.982;2023-08-17T12:32:14;6.65;;;4.82;;
17915;SDS011;9083;49.156;8.982;2023-08-17T12:34:41;9.20;;;4.90;;
17915;SDS011;9083;49.156;8.982;2023-08-17T12:37:08;5.70;;;4.63;;
17915;SDS011;9083;49.156;8.982;2023-08-17T12:39:34;6.95;;;4.68;;
17915;SDS011;9083;49.156;8.982;2023-08-17T12:42:00;5.03;;;4.63;;
17915;SDS011;9083;49.156;8.982;2023-08-17T12:44:27;8.43;;;5.00;;
17915;SDS011;9083;49.156;8.982;2023-08-17T12:46:53;6.40;;;4.80;;
17915;SDS011;9083;49.156;8.982;2023-08-17T12:49:21;8.95;;;4.90;;
17915;SDS011;9083;49.156;8.982;2023-08-17T12:51:48;4.85;;;4.30;;
17915;SDS011;9083;49.156;8.982;2023-08-17T12:54:14;9.15;;;4.93;;
17915;SDS011;9083;49.156;8.982;2023-08-17T12:56:41;7.65;;;4.25;;
17915;SDS011;9083;49.156;8.982;2023-08-17T12:59:07;5.88;;;4.63;;
17915;SDS011;9083;49.156;8.982;2023-08-17T13:01:33;6.05;;;4.80;;
17915;SDS011;9083;49.156;8.982;2023-08-17T13:04:00;6.97;;;5.07;;
17915;SDS011;9083;49.156;8.982;2023-08-17T13:06:28;8.57;;;4.70;;
17915;SDS011;9083;49.156;8.982;2023-08-17T13:08:54;9.40;;;6.07;;
17915;SDS011;9083;49.156;8.982;2023-08-17T13:11:21;9.18;;;5.25;;
17915;SDS011;9083;49.156;8.982;2023-08-17T13:13:47;5.82;;;4.38;;
17915;SDS011;9083;49.156;8.982;2023-08-17T13:16:13;8.25;;;5.13;;
17915;SDS011;9083;49.156;8.982;2023-08-17T13:18:40;5.70;;;5.20;;
17915;SDS011;9083;49.156;8.982;2023-08-17T13:21:06;7.82;;;5.68;;
17915;SDS011;9083;49.156;8.982;2023-08-17T13:23:34;11.35;;;5.90;;
17915;SDS011;9083;49.156;8.982;2023-08-17T13:26:01;5.55;;;5.00;;
17915;SDS011;9083;49.156;8.982;2023-08-17T13:28:28;11.90;;;5.93;;
17915;SDS011;9083;49.156;8.982;2023-08-17T13:30:54;12.95;;;5.57;;
17915;SDS011;9083;49.156;8.982;2023-08-17T13:33:20;10.57;;;6.57;;
17915;SDS011;9083;49.156;8.982;2023-08-17T13:35:47;10.18;;;6.65;;
17915;SDS011;9083;49.156;8.982;2023-08-17T13:38:13;16.00;;;6.65;;
17915;SDS011;9083;49.156;8.982;2023-08-17T13:40:41;11.18;;;6.75;;
17915;SDS011;9083;49.156;8.982;2023-08-17T13:43:07;13.32;;;7.13;;
17915;SDS011;9083;49.156;8.982;2023-08-17T13:45:37;9.63;;;6.40;;
17915;SDS011;9083;49.156;8.982;2023-08-17T13:48:04;11.95;;;7.07;;
17915;SDS011;9083;49.156;8.982;2023-08-17T13:50:30;14.40;;;6.90;;
17915;SDS011;9083;49.156;8.982;2023-08-17T13:52:57;11.35;;;7.43;;
17915;SDS011;9083;49.156;8.982;2023-08-17T13:55:25;11.90;;;6.85;;
17915;SDS011;9083;49.156;8.982;2023-08-17T13:57:53;12.90;;;6.68;;
17915;SDS011;9083;49.156;8.982;2023-08-17T14:00:20;10.68;;;6.30;;
17915;SDS011;9083;49.156;8.982;2023-08-17T14:02:47;9.02;;;6.32;;
17915;SDS011;9083;49.156;8.982;2023-08-17T14:05:13;7.03;;;6.03;;
17915;SDS011;9083;49.156;8.982;2023-08-17T14:07:39;9.23;;;6.40;;
17915;SDS011;9083;49.156;8.982;2023-08-17T14:10:06;10.07;;;5.65;;
17915;SDS011;9083;49.156;8.982;2023-08-17T14:12:33;6.90;;;5.40;;
17915;SDS011;9083;49.156;8.982;2023-08-17T14:15:01;6.68;;;5.70;;
17915;SDS011;9083;49.156;8.982;2023-08-17T14:17:27;9.05;;;5.43;;
17915;SDS011;9083;49.156;8.982;2023-08-17T14:19:54;7.57;;;5.18;;
17915;SDS011;9083;49.156;8.982;2023-08-17T14:22:20;8.50;;;5.35;;
17915;SDS011;9083;49.156;8.982;2023-08-17T14:24:47;15.88;;;5.82;;
17915;SDS011;9083;49.156;8.982;2023-08-17T14:27:13;8.93;;;5.20;;
17915;SDS011;9083;49.156;8.982;2023-08-17T14:29:40;8.43;;;5.05;;
17915;SDS011;9083;49.156;8.982;2023-08-17T14:32:07;5.50;;;4.32;;
17915;SDS011;9083;49.156;8.982;2023-08-17T14:34:34;9.07;;;4.95;;
17915;SDS011;9083;49.156;8.982;2023-08-17T14:37:00;9.77;;;4.65;;
17915;SDS011;9083;49.156;8.982;2023-08-17T14:39:27;12.05;;;6.05;;
17915;SDS011;9083;49.156;8.982;2023-08-17T14:41:53;7.10;;;4.82;;
17915;SDS011;9083;49.156;8.982;2023-08-17T14:44:19;11.75;;;4.82;;
17915;SDS011;9083;49.156;8.982;2023-08-17T14:46:46;15.70;;;5.80;;
17915;SDS011;9083;49.156;8.982;2023-08-17T14:49:13;11.05;;;4.97;;
17915;SDS011;9083;49.156;8.982;2023-08-17T14:51:40;10.57;;;5.40;;
17915;SDS011;9083;49.156;8.982;2023-08-17T14:54:07;10.02;;;5.60;;
17915;SDS011;9083;49.156;8.982;2023-08-17T14:56:34;11.85;;;5.90;;
17915;SDS011;9083;49.156;8.982;2023-08-17T14:59:00;11.93;;;4.78;;
17915;SDS011;9083;49.156;8.982;2023-08-17T15:01:27;5.22;;;4.68;;